Time;durP1;ratioP1;P1;durP2;ratioP2;P2;SDS_P1;SDS_P2;PMS_P1;PMS_P2;Temp;Humidity;BMP_temperature;BMP_pressure;BME280_temperature;BME280_humidity;BME280_pressure;Samples;Min_cycle;Max_cycle;Signal;HPM_P1;HPM_P2
2023/05/31 00:01:02;;;;;;;2.30;1.60;;;;;;;9.10;71.69;99017.59;2605825;28;20103;-83
2023/05/31 00:02:18;;;;;;;3.15;1.92;;;;;;;9.06;71.75;99011.53;2594888;28;20115;-81
2023/05/31 00:03:33;;;;;;;3.78;1.63;;;;;;;9.04;71.06;99013.28;2599280;28;20088;-82
2023/05/31 00:04:49;;;;;;;3.58;1.73;;;;;;;9.07;70.01;99007.19;2605039;28;20072;-84
2023/05/31 00:06:05;;;;;;;2.45;1.80;;;;;;;8.98;71.10;99009.00;2608066;28;20096;-82
2023/05/31 00:07:23;;;;;;;2.90;1.73;;;;;;;9.01;70.84;99016.84;2604056;28;20042;-82
2023/05/31 00:08:39;;;;;;;4.38;1.67;;;;;;;9.11;71.53;99007.13;2604881;28;20515;-82
2023/05/31 00:09:55;;;;;;;3.25;2.00;;;;;;;9.11;72.09;99009.75;2604378;28;20387;-83
2023/05/31 00:11:10;;;;;;;5.38;2.08;;;;;;;9.11;72.68;99007.13;2604741;28;20046;-83
2023/05/31 00:12:26;;;;;;;2.65;1.60;;;;;;;9.10;72.61;99005.41;2606431;28;20052;-82
2023/05/31 00:13:42;;;;;;;3.97;1.77;;;;;;;9.08;74.42;99004.56;2604817;28;20910;-83
2023/05/31 00:14:57;;;;;;;3.75;1.80;;;;;;;9.09;71.99;99014.13;2604469;28;20104;-82
2023/05/31 00:16:13;;;;;;;4.72;1.85;;;;;;;8.84;73.42;99013.53;2605271;28;20049;-83
2023/05/31 00:17:29;;;;;;;3.40;1.88;;;;;;;8.64;76.51;99016.38;2605377;28;20068;-83
2023/05/31 00:18:44;;;;;;;3.53;2.10;;;;;;;8.49;77.43;99015.63;2603896;28;20060;-83
2023/05/31 00:20:00;;;;;;;3.58;2.22;;;;;;;8.45;78.88;99008.72;2606580;28;20060;-83
2023/05/31 00:21:15;;;;;;;3.40;1.92;;;;;;;8.45;77.27;99008.72;2603645;28;20056;-83
2023/05/31 00:22:31;;;;;;;5.47;2.00;;;;;;;8.45;77.23;99004.38;2593059;28;20116;-83
2023/05/31 00:23:47;;;;;;;3.35;1.73;;;;;;;8.55;76.14;99006.91;2596466;28;20057;-83
2023/05/31 00:25:03;;;;;;;3.63;1.80;;;;;;;8.50;77.74;99009.56;2604094;28;20131;-83
2023/05/31 00:26:19;;;;;;;3.80;1.95;;;;;;;8.43;77.81;99007.88;2602804;28;20045;-84
2023/05/31 00:27:35;;;;;;;2.80;1.88;;;;;;;8.57;76.77;99010.34;2604597;28;20093;-83
2023/05/31 00:28:50;;;;;;;4.50;1.90;;;;;;;8.50;78.42;99012.16;2599886;28;20195;-82
2023/05/31 00:30:06;;;;;;;3.10;1.85;;;;;;;8.55;77.56;99013.00;2605048;28;20045;-82
2023/05/31 00:31:22;;;;;;;3.22;1.90;;;;;;;8.65;76.01;99007.66;2604224;28;20056;-84
2023/05/31 00:32:38;;;;;;;6.15;1.85;;;;;;;8.60;76.14;99008.59;2604046;28;20053;-83
2023/05/31 00:33:53;;;;;;;3.17;1.75;;;;;;;8.63;75.75;99015.53;2591993;28;20506;-83
2023/05/31 00:35:09;;;;;;;3.38;1.60;;;;;;;8.59;78.16;99012.06;2596263;28;20076;-83
2023/05/31 00:36:25;;;;;;;3.85;1.90;;;;;;;8.60;76.31;99011.19;2602728;28;20184;-83
2023/05/31 00:37:41;;;;;;;2.90;1.77;;;;;;;8.62;76.63;99014.66;2605316;28;20045;-83
2023/05/31 00:38:56;;;;;;;3.90;1.85;;;;;;;8.48;78.29;99013.91;2603785;28;20053;-83
2023/05/31 00:40:12;;;;;;;4.85;2.60;;;;;;;8.58;77.52;99005.13;2603701;28;20525;-83
2023/05/31 00:41:27;;;;;;;3.85;1.88;;;;;;;8.43;78.01;99016.53;2604523;28;20060;-83
2023/05/31 00:42:43;;;;;;;3.65;2.25;;;;;;;8.54;76.94;99005.16;2603056;28;20045;-83
2023/05/31 00:43:58;;;;;;;2.67;1.70;;;;;;;8.56;75.83;99011.22;2605442;28;20484;-83
2023/05/31 00:45:14;;;;;;;3.83;1.80;;;;;;;8.50;77.08;99006.94;2604289;28;20107;-83
2023/05/31 00:46:33;;;;;;;3.15;2.00;;;;;;;8.53;76.45;99011.28;2605523;28;20071;-83
2023/05/31 00:47:50;;;;;;;4.03;1.60;;;;;;;8.59;76.53;99005.97;2603679;28;20080;-83
2023/05/31 00:49:06;;;;;;;2.88;1.80;;;;;;;8.65;75.62;99005.03;2604000;28;20053;-83
2023/05/31 00:50:21;;;;;;;3.90;1.90;;;;;;;8.58;75.32;99007.75;2604696;28;20323;-83
2023/05/31 00:51:37;;;;;;;3.83;2.00;;;;;;;8.60;75.02;99007.72;2593384;28;20088;-83
2023/05/31 00:52:55;;;;;;;3.72;1.80;;;;;;;8.58;75.24;99004.25;2598428;28;20053;-83
2023/05/31 00:54:11;;;;;;;4.57;1.90;;;;;;;8.64;75.46;99003.31;2602590;28;20563;-83
2023/05/31 00:55:28;;;;;;;3.72;1.67;;;;;;;8.42;76.13;98998.31;2602864;28;20123;-83
2023/05/31 00:56:44;;;;;;;4.65;2.30;;;;;;;8.36;76.74;99000.97;2604148;28;20050;-83
2023/05/31 00:58:02;;;;;;;5.57;1.88;;;;;;;8.30;77.81;99002.75;2604162;28;20084;-83
2023/05/31 00:59:17;;;;;;;5.00;2.30;;;;;;;8.35;77.64;99002.72;2601989;28;20061;-83
2023/05/31 01:00:33;;;;;;;4.57;1.90;;;;;;;8.37;78.88;99000.09;2605806;28;20140;-83
2023/05/31 01:01:50;;;;;;;2.70;1.90;;;;;;;8.32;80.48;98997.53;2605425;28;20045;-84
2023/05/31 01:03:08;;;;;;;2.90;1.85;;;;;;;8.32;80.21;99005.38;2601149;28;20045;-83
2023/05/31 01:04:25;;;;;;;3.58;1.90;;;;;;;8.14;80.63;98995.97;2604633;28;20472;-84
2023/05/31 01:05:41;;;;;;;3.33;1.92;;;;;;;8.13;80.19;99002.91;2604611;28;20141;-83
2023/05/31 01:07:00;;;;;;;4.78;1.90;;;;;;;8.17;79.93;99002.03;2602990;28;20091;-83
2023/05/31 01:08:16;;;;;;;3.03;1.80;;;;;;;8.17;80.07;98993.31;2603112;28;20511;-84
2023/05/31 01:09:34;;;;;;;5.60;2.00;;;;;;;8.27;78.62;99005.41;2603966;28;20509;-83
2023/05/31 01:10:53;;;;;;;3.53;1.80;;;;;;;8.32;78.50;99001.00;2603276;28;20125;-83
2023/05/31 01:12:32;;;;;;;5.05;1.90;;;;;;;8.12;78.26;99008.16;2603717;28;20209;-83
2023/05/31 01:14:11;;;;;;;4.22;2.08;;;;;;;8.10;78.59;98992.53;2594077;28;20104;-83
2023/05/31 01:15:32;;;;;;;4.72;2.58;;;;;;;8.03;79.56;99003.88;2602649;28;20131;-84
2023/05/31 01:16:54;;;;;;;3.45;2.00;;;;;;;7.98;79.04;99000.44;2603106;28;20057;-83
2023/05/31 01:18:55;;;;;;;4.15;1.80;;;;;;;7.99;80.05;99005.66;2601791;28;20057;-84
2023/05/31 01:20:13;;;;;;;5.75;1.98;;;;;;;8.09;78.20;99002.94;2580230;28;20054;-84
2023/05/31 01:21:52;;;;;;;4.32;1.83;;;;;;;8.03;79.85;99004.75;2582258;28;20069;-85
2023/05/31 01:23:22;;;;;;;4.50;2.13;;;;;;;7.99;81.08;99005.66;2583093;28;20054;-84
2023/05/31 01:24:59;;;;;;;4.80;1.92;;;;;;;7.82;81.22;99003.19;2579864;28;20489;-82
2023/05/31 01:26:35;;;;;;;4.38;2.00;;;;;;;7.74;82.36;99004.97;2580545;28;20100;-84
2023/05/31 01:27:52;;;;;;;4.38;2.17;;;;;;;7.82;81.69;99004.91;2582073;28;20057;-82
2023/05/31 01:29:12;;;;;;;3.38;1.75;;;;;;;7.84;80.80;99001.41;2581276;28;20078;-83
2023/05/31 01:30:29;;;;;;;3.08;1.60;;;;;;;7.85;81.65;98997.09;2583632;28;20046;-83
2023/05/31 01:31:46;;;;;;;4.10;1.88;;;;;;;7.83;81.10;98998.84;2579733;28;20216;-83
2023/05/31 01:33:08;;;;;;;5.15;2.03;;;;;;;7.85;79.16;99003.16;2583248;28;20540;-83
2023/05/31 01:34:24;;;;;;;3.72;1.90;;;;;;;7.81;78.93;98993.63;2582562;28;20517;-83
2023/05/31 01:35:40;;;;;;;3.88;1.60;;;;;;;7.71;80.16;98998.06;2581628;28;20102;-83
2023/05/31 01:36:55;;;;;;;5.03;2.00;;;;;;;7.60;80.84;98995.50;2580977;28;20096;-83
2023/05/31 01:38:11;;;;;;;4.53;2.28;;;;;;;7.69;79.98;99001.53;2581823;28;20305;-83
2023/05/31 01:39:27;;;;;;;5.40;2.05;;;;;;;7.78;79.53;98998.88;2579578;28;20046;-83
2023/05/31 01:40:42;;;;;;;3.55;1.45;;;;;;;7.61;79.89;99001.59;2581645;28;20116;-83
2023/05/31 01:41:59;;;;;;;4.72;1.80;;;;;;;7.42;81.19;99003.44;2581821;28;20069;-84
2023/05/31 01:43:16;;;;;;;4.78;1.98;;;;;;;7.54;79.71;99008.59;2581996;28;20053;-83
2023/05/31 01:44:33;;;;;;;3.65;1.70;;;;;;;7.44;80.03;99004.31;2581388;28;20077;-83
2023/05/31 01:45:49;;;;;;;3.30;1.85;;;;;;;7.51;80.73;99005.13;2582008;28;20413;-85
2023/05/31 01:47:07;;;;;;;5.00;1.95;;;;;;;7.31;82.64;98996.56;2579954;28;20168;-83
2023/05/31 01:48:24;;;;;;;2.60;1.80;;;;;;;7.14;84.00;99006.22;2581786;28;20553;-83
2023/05/31 01:49:41;;;;;;;3.60;1.90;;;;;;;7.01;85.53;99003.66;2581950;28;20538;-83
2023/05/31 01:50:59;;;;;;;3.63;1.75;;;;;;;7.31;85.57;99006.13;2584110;28;20054;-83
2023/05/31 01:52:17;;;;;;;3.88;1.90;;;;;;;7.22;88.85;99007.03;2582547;28;20517;-84
2023/05/31 01:53:32;;;;;;;2.88;1.80;;;;;;;7.15;88.64;99013.16;2582177;28;20050;-83
2023/05/31 01:54:48;;;;;;;4.07;1.75;;;;;;;7.14;89.00;99014.03;2593210;28;20061;-83
2023/05/31 01:56:05;;;;;;;3.95;2.00;;;;;;;7.07;88.40;99013.19;2604935;28;20052;-83
2023/05/31 01:57:21;;;;;;;4.57;1.60;;;;;;;6.84;90.45;99014.13;2605335;28;20128;-83
2023/05/31 01:58:41;;;;;;;3.03;1.70;;;;;;;7.13;88.34;99013.16;2606454;28;20045;-83
2023/05/31 02:00:00;;;;;;;3.92;1.85;;;;;;;7.29;86.81;99002.66;2605317;28;20046;-83
2023/05/31 02:01:17;;;;;;;4.07;2.10;;;;;;;7.40;87.97;99005.22;2604054;28;20472;-83
2023/05/31 02:02:34;;;;;;;4.78;2.10;;;;;;;7.41;86.49;99013.03;2604487;28;20416;-84
2023/05/31 02:03:53;;;;;;;3.97;2.00;;;;;;;7.43;86.51;99006.06;2606239;28;20081;-84
2023/05/31 02:05:13;;;;;;;4.32;2.13;;;;;;;7.48;86.55;99014.69;2605581;28;20136;-83
2023/05/31 02:06:29;;;;;;;3.33;1.90;;;;;;;7.43;86.29;99013.88;2615831;28;20072;-83
2023/05/31 02:07:46;;;;;;;2.80;1.60;;;;;;;7.46;85.62;99012.97;2611836;28;20088;-83
2023/05/31 02:09:01;;;;;;;5.65;1.88;;;;;;;7.39;86.76;99019.09;2604203;28;20080;-84
2023/05/31 02:10:17;;;;;;;4.35;2.03;;;;;;;7.36;88.25;99014.78;2606218;28;20041;-83
2023/05/31 02:11:33;;;;;;;4.40;2.17;;;;;;;7.39;87.08;99016.50;2606230;28;20052;-84
2023/05/31 02:12:54;;;;;;;2.03;1.70;;;;;;;7.46;85.08;99013.84;2603652;28;20053;-84
2023/05/31 02:14:10;;;;;;;4.72;1.98;;;;;;;7.33;84.17;99014.78;2603727;28;20049;-83
2023/05/31 02:15:26;;;;;;;4.13;2.00;;;;;;;7.23;84.74;99020.91;2606176;28;20069;-85
2023/05/31 02:16:41;;;;;;;3.97;1.90;;;;;;;7.26;85.38;99015.69;2606432;28;20456;-83
2023/05/31 02:17:58;;;;;;;3.30;1.95;;;;;;;7.20;86.16;99014.00;2604624;28;20088;-83
2023/05/31 02:19:14;;;;;;;4.45;1.85;;;;;;;6.97;86.51;99019.28;2604010;28;20151;-83
2023/05/31 02:20:29;;;;;;;3.72;1.90;;;;;;;6.71;89.37;99021.13;2604767;28;20049;-83
2023/05/31 02:21:45;;;;;;;4.88;1.90;;;;;;;6.61;90.67;99015.09;2605307;28;20048;-83
2023/05/31 02:23:01;;;;;;;3.55;1.80;;;;;;;6.78;88.88;99012.44;2606291;28;20099;-83
2023/05/31 02:24:16;;;;;;;3.65;2.13;;;;;;;6.87;87.61;99018.47;2604034;28;20053;-83
2023/05/31 02:25:32;;;;;;;3.33;1.90;;;;;;;6.81;89.88;99026.31;2602803;28;20405;-83
2023/05/31 02:26:47;;;;;;;4.00;1.98;;;;;;;6.64;92.75;99022.88;2602728;28;20052;-83
2023/05/31 02:28:03;;;;;;;3.20;1.77;;;;;;;6.46;98.13;99023.78;2605456;28;20045;-83
2023/05/31 02:29:19;;;;;;;3.10;1.55;;;;;;;6.46;96.31;99015.97;2602845;28;20057;-83
2023/05/31 02:30:35;;;;;;;4.03;1.90;;;;;;;6.42;96.49;99023.78;2603104;28;20050;-83
2023/05/31 02:31:51;;;;;;;3.70;2.10;;;;;;;6.24;98.48;99024.69;2603144;28;20519;-83
2023/05/31 02:33:08;;;;;;;4.15;2.03;;;;;;;6.31;99.25;99022.09;2604719;28;20049;-83
2023/05/31 02:34:23;;;;;;;2.83;1.80;;;;;;;6.35;98.80;99012.53;2603511;28;20496;-83
2023/05/31 02:35:39;;;;;;;4.13;2.00;;;;;;;6.47;97.42;99022.06;2603321;28;20069;-83
2023/05/31 02:36:55;;;;;;;7.70;1.88;;;;;;;6.63;95.80;99022.88;2604635;28;20052;-84
2023/05/31 02:38:10;;;;;;;2.65;1.52;;;;;;;6.47;97.83;99025.50;2603724;28;20123;-83
2023/05/31 02:39:26;;;;;;;3.65;1.98;;;;;;;6.66;97.29;99024.59;2605755;28;20084;-83
2023/05/31 02:40:41;;;;;;;3.08;1.80;;;;;;;6.48;99.37;99019.44;2604715;28;20053;-83
2023/05/31 02:41:57;;;;;;;7.25;2.20;;;;;;;6.59;99.48;99021.16;2602778;28;20118;-83
2023/05/31 02:43:13;;;;;;;3.33;1.90;;;;;;;6.71;99.75;99020.28;2602437;28;20083;-83
2023/05/31 02:44:28;;;;;;;5.47;1.77;;;;;;;6.64;98.24;99025.47;2603206;28;20050;-83
2023/05/31 02:45:44;;;;;;;3.15;2.10;;;;;;;6.67;99.17;99026.34;2602660;28;20128;-83
2023/05/31 02:47:00;;;;;;;3.15;2.15;;;;;;;6.60;100.00;99023.75;2603895;28;20106;-84
2023/05/31 02:48:15;;;;;;;4.00;2.10;;;;;;;6.60;100.00;99023.75;2602698;28;20121;-83
2023/05/31 02:49:31;;;;;;;5.07;2.00;;;;;;;6.67;100.00;99021.13;2605618;28;20406;-84
2023/05/31 02:50:46;;;;;;;4.60;2.03;;;;;;;6.78;99.13;99019.38;2603803;28;20364;-84
2023/05/31 02:52:02;;;;;;;4.18;2.05;;;;;;;6.50;99.89;99017.72;2603939;28;20103;-83
2023/05/31 02:53:18;;;;;;;5.43;2.05;;;;;;;6.59;100.00;99022.03;2602528;28;20048;-84
2023/05/31 02:54:34;;;;;;;3.17;1.73;;;;;;;6.72;99.93;99024.59;2602994;28;20056;-83
2023/05/31 02:55:51;;;;;;;3.78;2.22;;;;;;;6.74;99.94;99022.88;2602555;28;20520;-84
2023/05/31 02:57:06;;;;;;;3.92;1.90;;;;;;;6.81;98.67;99026.31;2604151;28;20072;-84
2023/05/31 02:58:22;;;;;;;4.47;2.15;;;;;;;6.82;97.48;99021.09;2603505;28;20045;-83
2023/05/31 02:59:37;;;;;;;3.40;2.08;;;;;;;6.84;96.04;99024.53;2604254;28;20551;-84
2023/05/31 03:00:53;;;;;;;4.22;2.28;;;;;;;6.84;97.30;99024.53;2602054;28;20055;-83
2023/05/31 03:02:09;;;;;;;4.93;1.90;;;;;;;6.88;96.46;99025.41;2602828;28;20493;-84
2023/05/31 03:03:24;;;;;;;3.90;2.13;;;;;;;6.86;97.87;99030.63;2603593;28;20049;-84
2023/05/31 03:04:41;;;;;;;3.58;2.10;;;;;;;6.87;96.48;99027.16;2602424;28;20037;-83
2023/05/31 03:05:59;;;;;;;4.10;2.40;;;;;;;6.89;96.49;99027.13;2601941;28;20049;-83
2023/05/31 03:07:14;;;;;;;4.75;2.10;;;;;;;6.87;96.29;99026.28;2602640;28;20046;-83
2023/05/31 03:08:30;;;;;;;4.75;1.88;;;;;;;6.85;96.44;99022.81;2602645;28;20075;-85
2023/05/31 03:09:46;;;;;;;4.15;1.92;;;;;;;6.62;96.83;99026.34;2604599;28;20168;-83
2023/05/31 03:11:01;;;;;;;3.58;1.80;;;;;;;6.47;98.49;99027.25;2603826;28;20049;-83
2023/05/31 03:12:17;;;;;;;3.63;1.90;;;;;;;6.58;97.53;99024.63;2603162;28;20045;-83
2023/05/31 03:13:32;;;;;;;3.40;2.10;;;;;;;6.58;96.64;99028.09;2603383;28;20542;-83
2023/05/31 03:14:48;;;;;;;4.82;1.90;;;;;;;6.42;97.88;99023.78;2603498;28;20056;-83
2023/05/31 03:16:03;;;;;;;5.80;2.20;;;;;;;6.35;99.15;99034.22;2589722;28;20053;-84
2023/05/31 03:17:20;;;;;;;3.97;1.95;;;;;;;6.35;99.08;99031.59;2595509;28;20541;-83
2023/05/31 03:18:35;;;;;;;3.38;2.13;;;;;;;6.53;96.78;99032.44;2602781;28;20053;-84
2023/05/31 03:19:51;;;;;;;3.03;2.03;;;;;;;6.63;95.60;99034.16;2601716;28;20052;-82
2023/05/31 03:21:07;;;;;;;3.15;1.80;;;;;;;6.64;93.98;99028.09;2604515;28;20128;-83
2023/05/31 03:22:23;;;;;;;4.72;2.17;;;;;;;6.67;93.83;99028.94;2602476;28;20052;-83
2023/05/31 03:23:38;;;;;;;4.55;1.65;;;;;;;6.68;93.73;99028.94;2602455;28;21012;-82
2023/05/31 03:24:54;;;;;;;4.53;2.13;;;;;;;6.59;92.32;99031.56;2602140;28;20509;-83
2023/05/31 03:26:09;;;;;;;3.67;2.15;;;;;;;6.63;94.45;99028.94;2604992;28;20048;-83
2023/05/31 03:27:25;;;;;;;3.30;1.65;;;;;;;6.47;98.71;99029.88;2602693;28;20464;-83
2023/05/31 03:28:41;;;;;;;5.05;2.08;;;;;;;6.50;97.26;99035.06;2604209;28;20118;-83
2023/05/31 03:29:56;;;;;;;3.13;1.95;;;;;;;6.46;98.61;99028.13;2604249;28;20056;-83
2023/05/31 03:31:12;;;;;;;4.32;2.25;;;;;;;6.49;100.00;99036.78;2604509;28;20085;-82
2023/05/31 03:32:28;;;;;;;2.90;1.75;;;;;;;6.53;98.97;99036.78;2601158;28;20143;-82
2023/05/31 03:33:43;;;;;;;2.83;1.85;;;;;;;6.55;98.42;99033.28;2604157;28;20053;-82
2023/05/31 03:34:59;;;;;;;5.68;1.65;;;;;;;6.50;96.48;99035.94;2602120;28;20053;-83
2023/05/31 03:36:15;;;;;;;2.33;1.55;;;;;;;6.46;97.04;99033.34;2603326;28;20057;-82
2023/05/31 03:37:30;;;;;;;2.60;1.70;;;;;;;6.32;98.25;99036.81;2604886;28;20563;-83
2023/05/31 03:38:46;;;;;;;4.43;2.30;;;;;;;6.47;96.15;99045.47;2604424;28;20045;-82
2023/05/31 03:40:04;;;;;;;3.78;1.90;;;;;;;6.54;96.48;99041.97;2601859;28;20100;-82
2023/05/31 03:41:19;;;;;;;3.78;2.08;;;;;;;6.65;95.04;99044.56;2601709;28;20061;-83
2023/05/31 03:42:35;;;;;;;2.65;2.00;;;;;;;6.53;95.47;99042.84;2601708;28;20583;-82
2023/05/31 03:43:51;;;;;;;2.80;1.85;;;;;;;6.60;95.83;99041.97;2603002;28;20063;-83
2023/05/31 03:45:07;;;;;;;3.60;2.08;;;;;;;6.68;97.47;99046.28;2604902;28;20136;-82
2023/05/31 03:46:23;;;;;;;5.55;2.00;;;;;;;6.54;98.09;99043.72;2604409;28;20413;-82
2023/05/31 03:47:39;;;;;;;4.22;1.85;;;;;;;6.32;100.00;99039.41;2601415;28;20049;-83
2023/05/31 03:48:55;;;;;;;3.65;2.00;;;;;;;6.11;100.00;99042.03;2601603;28;20099;-83
2023/05/31 03:50:11;;;;;;;2.53;2.03;;;;;;;6.16;100.00;99045.50;2601927;28;20052;-84
2023/05/31 03:51:27;;;;;;;3.63;1.95;;;;;;;6.17;100.00;99055.03;2603596;28;20100;-84
2023/05/31 03:52:42;;;;;;;5.15;2.25;;;;;;;6.24;100.00;99048.09;2603366;28;20041;-84
2023/05/31 03:53:58;;;;;;;3.97;1.90;;;;;;;6.27;100.00;99051.53;2603902;28;20514;-84
2023/05/31 03:55:14;;;;;;;4.75;2.13;;;;;;;6.26;100.00;99054.16;2605466;28;20107;-84
2023/05/31 03:56:29;;;;;;;3.97;1.90;;;;;;;6.29;100.00;99052.44;2602354;28;20045;-84
2023/05/31 03:57:45;;;;;;;4.05;1.92;;;;;;;6.40;100.00;99049.81;2602355;28;20049;-83
2023/05/31 03:59:00;;;;;;;3.00;1.92;;;;;;;6.49;100.00;99046.31;2601663;28;20065;-84
2023/05/31 04:00:16;;;;;;;4.72;2.10;;;;;;;6.64;100.00;99046.28;2602777;28;20474;-84
2023/05/31 04:01:32;;;;;;;4.22;2.00;;;;;;;6.48;100.00;99048.06;2603788;28;20060;-84
2023/05/31 04:02:48;;;;;;;3.80;1.88;;;;;;;6.70;100.00;99055.81;2602858;28;20489;-83
2023/05/31 04:04:03;;;;;;;6.30;2.47;;;;;;;6.64;100.00;99051.50;2592679;28;20062;-84
2023/05/31 04:05:19;;;;;;;2.90;1.90;;;;;;;6.60;100.00;99051.50;2595629;28;20056;-83
2023/05/31 04:06:35;;;;;;;4.93;2.03;;;;;;;6.77;100.00;99046.25;2601651;28;20078;-84
2023/05/31 04:07:50;;;;;;;3.33;2.28;;;;;;;7.00;100.00;99056.59;2602284;28;20053;-82
2023/05/31 04:09:06;;;;;;;5.70;2.08;;;;;;;7.17;100.00;99051.34;2601908;28;21136;-82
2023/05/31 04:10:22;;;;;;;3.65;1.92;;;;;;;7.19;100.00;99046.09;2603128;28;20052;-83
2023/05/31 04:11:38;;;;;;;7.68;2.22;;;;;;;7.12;100.00;99047.88;2604254;28;20045;-82
2023/05/31 04:12:53;;;;;;;3.28;2.03;;;;;;;7.19;100.00;99048.72;2602467;28;20731;-82
2023/05/31 04:14:09;;;;;;;4.78;2.17;;;;;;;7.04;100.00;99049.66;2601276;28;20167;-83
2023/05/31 04:15:24;;;;;;;5.88;2.08;;;;;;;7.14;100.00;99043.53;2603108;28;20068;-83
2023/05/31 04:16:40;;;;;;;4.30;2.38;;;;;;;7.38;100.00;99051.25;2601774;28;20045;-82
2023/05/31 04:17:56;;;;;;;6.63;2.22;;;;;;;7.47;100.00;99048.56;2603740;28;20107;-82
2023/05/31 04:19:12;;;;;;;4.90;2.40;;;;;;;7.42;100.00;99055.56;2602646;28;20102;-83
2023/05/31 04:20:27;;;;;;;5.95;2.50;;;;;;;7.27;100.00;99056.50;2603685;28;20099;-82
2023/05/31 04:21:43;;;;;;;3.90;2.30;;;;;;;7.34;100.00;99047.78;2603201;28;20052;-82
2023/05/31 04:22:59;;;;;;;4.68;2.63;;;;;;;7.25;100.00;99051.31;2601538;28;20046;-82
2023/05/31 04:24:14;;;;;;;3.92;2.20;;;;;;;6.98;100.00;99052.25;2601444;28;20080;-82
2023/05/31 04:25:31;;;;;;;7.05;2.58;;;;;;;6.95;100.00;99054.88;2602417;28;20056;-82
2023/05/31 04:26:46;;;;;;;4.32;2.40;;;;;;;7.08;100.00;99051.38;2600910;28;20049;-82
2023/05/31 04:28:06;;;;;;;4.32;2.05;;;;;;;7.20;100.00;99050.47;2602500;28;20053;-82
2023/05/31 04:29:22;;;;;;;6.57;2.65;;;;;;;7.27;100.00;99051.31;2602463;28;20076;-83
2023/05/31 04:30:37;;;;;;;5.47;2.10;;;;;;;7.31;100.00;99048.66;2602071;28;20045;-82
2023/05/31 04:31:53;;;;;;;3.63;2.25;;;;;;;7.40;100.00;99052.09;2603813;28;20053;-82
2023/05/31 04:33:09;;;;;;;4.95;2.30;;;;;;;7.28;100.00;99047.81;2601323;28;20053;-82
2023/05/31 04:34:26;;;;;;;5.88;2.38;;;;;;;7.38;100.00;99044.28;2602114;28;20103;-82
2023/05/31 04:35:43;;;;;;;4.78;2.40;;;;;;;7.55;100.00;99045.94;2603819;28;20041;-82
2023/05/31 04:36:58;;;;;;;5.13;2.25;;;;;;;7.68;100.00;99055.38;2602661;28;20132;-82
2023/05/31 04:38:16;;;;;;;4.55;2.10;;;;;;;7.75;100.00;99049.28;2602203;28;20237;-82
2023/05/31 04:39:31;;;;;;;4.85;2.20;;;;;;;7.66;100.00;99051.94;2601476;28;20518;-82
2023/05/31 04:40:50;;;;;;;4.72;2.40;;;;;;;7.73;100.00;99053.63;2602760;28;20079;-82
2023/05/31 04:42:05;;;;;;;3.95;2.22;;;;;;;7.77;100.00;99049.28;2602035;28;20048;-83
2023/05/31 04:43:22;;;;;;;4.20;2.33;;;;;;;7.76;100.00;99048.41;2601267;28;20132;-81
2023/05/31 04:44:37;;;;;;;3.95;1.85;;;;;;;7.74;100.00;99051.88;2603679;28;20061;-81
2023/05/31 04:45:53;;;;;;;4.78;2.03;;;;;;;7.90;100.00;99055.25;2601416;28;20151;-82
2023/05/31 04:47:08;;;;;;;5.13;2.22;;;;;;;7.97;100.00;99054.34;2601783;28;20735;-81
2023/05/31 04:48:26;;;;;;;6.07;2.30;;;;;;;8.05;100.00;99047.31;2601256;28;20140;-84
2023/05/31 04:49:41;;;;;;;4.10;2.17;;;;;;;8.08;100.00;99045.56;2602135;28;20044;-81
2023/05/31 04:50:58;;;;;;;3.42;2.10;;;;;;;8.02;100.00;99052.56;2603092;28;20057;-82
2023/05/31 04:52:14;;;;;;;3.40;2.03;;;;;;;7.94;100.00;99050.91;2601106;28;20045;-81
2023/05/31 04:53:30;;;;;;;3.85;2.38;;;;;;;8.11;100.00;99042.94;2601972;28;20049;-81
2023/05/31 04:54:45;;;;;;;5.80;2.28;;;;;;;8.25;100.00;99046.31;2602812;28;20056;-81
2023/05/31 04:56:04;;;;;;;4.00;2.10;;;;;;;8.23;100.00;99042.81;2603591;28;20049;-81
2023/05/31 04:57:20;;;;;;;5.00;2.30;;;;;;;8.15;100.00;99048.09;2600676;28;20042;-81
2023/05/31 04:58:36;;;;;;;3.05;2.10;;;;;;;8.36;100.00;99051.41;2600765;28;20041;-82
2023/05/31 04:59:52;;;;;;;2.88;2.08;;;;;;;8.51;100.00;99044.34;2603505;28;20106;-80
2023/05/31 05:01:08;;;;;;;4.03;2.17;;;;;;;8.51;100.00;99050.44;2601294;28;20053;-81
2023/05/31 05:02:24;;;;;;;4.18;2.28;;;;;;;8.59;100.00;99051.22;2602715;28;20092;-81
2023/05/31 05:03:40;;;;;;;4.75;2.40;;;;;;;8.55;100.00;99052.16;2592091;28;20592;-83
2023/05/31 05:04:55;;;;;;;5.00;2.40;;;;;;;8.69;100.00;99049.38;2600995;28;20067;-81
2023/05/31 05:06:13;;;;;;;4.07;2.40;;;;;;;8.66;100.00;99053.75;2590615;28;20053;-81
2023/05/31 05:07:29;;;;;;;3.55;2.08;;;;;;;8.62;100.00;99045.97;2597690;28;20140;-82
2023/05/31 05:08:46;;;;;;;4.40;2.22;;;;;;;8.89;100.00;99048.31;2602169;28;20056;-81
2023/05/31 05:10:02;;;;;;;5.00;2.50;;;;;;;8.88;100.00;99044.81;2602197;28;20050;-83
2023/05/31 05:11:18;;;;;;;3.25;2.03;;;;;;;8.96;100.00;99046.50;2603143;28;20073;-82
2023/05/31 05:12:33;;;;;;;4.35;2.25;;;;;;;9.02;100.00;99049.03;2602861;28;20492;-83
2023/05/31 05:13:49;;;;;;;4.63;2.33;;;;;;;9.12;100.00;99053.25;2602201;28;20519;-84
2023/05/31 05:15:05;;;;;;;4.03;2.20;;;;;;;9.21;100.00;99054.88;2601342;28;20053;-82
2023/05/31 05:16:21;;;;;;;5.47;2.13;;;;;;;9.31;100.00;99055.63;2601225;28;20049;-83
2023/05/31 05:17:37;;;;;;;3.78;2.05;;;;;;;9.31;100.00;99051.28;2590198;28;20050;-82
2023/05/31 05:18:54;;;;;;;6.00;2.15;;;;;;;9.39;100.00;99058.16;2595259;28;20759;-87
2023/05/31 05:20:10;;;;;;;3.72;2.13;;;;;;;9.34;100.00;99058.19;2602149;28;20139;-87
2023/05/31 05:21:25;;;;;;;4.95;2.30;;;;;;;9.44;100.00;99059.81;2601858;28;20041;-86
2023/05/31 05:22:51;;;;;;;4.38;2.20;;;;;;;9.79;100.00;99054.13;2600441;28;20042;-86
2023/05/31 05:24:06;;;;;;;4.97;2.80;;;;;;;9.84;100.00;99045.28;2602908;28;20052;-86
2023/05/31 05:25:22;;;;;;;5.90;2.53;;;;;;;9.46;100.00;99052.81;2603293;28;20432;-86
2023/05/31 05:26:38;;;;;;;3.53;1.88;;;;;;;9.84;100.00;99047.06;2604255;28;20053;-86
2023/05/31 05:27:53;;;;;;;3.70;2.08;;;;;;;9.53;100.00;99053.59;2604952;28;20060;-86
2023/05/31 05:29:09;;;;;;;6.03;2.30;;;;;;;9.80;100.00;99055.84;2603768;28;21352;-87
2023/05/31 05:30:25;;;;;;;7.13;2.30;;;;;;;10.01;100.00;99055.50;2604393;28;20103;-86
2023/05/31 05:31:41;;;;;;;3.78;2.55;;;;;;;9.94;100.00;99047.78;2603993;28;20045;-87
2023/05/31 05:32:57;;;;;;;5.65;2.55;;;;;;;10.07;100.00;99051.94;2604033;28;20053;-86
2023/05/31 05:34:12;;;;;;;4.93;2.13;;;;;;;10.10;100.00;99051.03;2604997;28;20168;-86
2023/05/31 05:35:28;;;;;;;3.63;1.90;;;;;;;10.00;100.00;99048.53;2605001;28;20049;-86
2023/05/31 05:36:43;;;;;;;3.70;2.05;;;;;;;10.04;100.00;99055.44;2594051;28;20042;-87
2023/05/31 05:37:59;;;;;;;3.78;1.95;;;;;;;10.25;100.00;99057.75;2599180;28;20091;-86
2023/05/31 05:39:15;;;;;;;5.25;2.60;;;;;;;10.41;100.00;99055.78;2604323;28;20049;-86
2023/05/31 05:40:30;;;;;;;2.75;1.63;;;;;;;10.48;100.00;99059.16;2604456;28;20053;-86
2023/05/31 05:41:46;;;;;;;4.90;2.50;;;;;;;10.59;100.00;99051.97;2605661;28;20168;-88
2023/05/31 05:43:01;;;;;;;4.07;2.25;;;;;;;10.65;98.26;99056.22;2604938;28;20042;-86
2023/05/31 05:44:17;;;;;;;4.22;2.17;;;;;;;10.66;97.66;99056.19;2591922;28;20489;-86
2023/05/31 05:45:33;;;;;;;4.03;2.50;;;;;;;10.84;95.08;99057.59;2598795;28;20050;-87
2023/05/31 05:46:48;;;;;;;3.80;1.95;;;;;;;10.97;95.91;99060.00;2606130;28;20060;-86
2023/05/31 05:48:04;;;;;;;4.75;2.28;;;;;;;10.94;94.54;99054.81;2605710;28;20444;-86
2023/05/31 05:49:20;;;;;;;3.60;2.20;;;;;;;11.04;93.92;99060.72;2603243;28;20057;-86
2023/05/31 05:50:35;;;;;;;3.40;2.25;;;;;;;11.04;93.52;99061.59;2604655;28;20045;-86
2023/05/31 05:51:51;;;;;;;5.18;2.10;;;;;;;11.24;90.25;99058.53;2603994;28;20045;-86
2023/05/31 05:53:06;;;;;;;4.32;2.13;;;;;;;11.18;93.35;99056.06;2605565;28;20053;-85
2023/05/31 05:54:22;;;;;;;3.55;2.25;;;;;;;11.22;93.38;99056.88;2604554;28;20111;-86
2023/05/31 05:55:38;;;;;;;4.60;2.22;;;;;;;11.34;91.73;99061.88;2608744;28;20048;-86
2023/05/31 05:56:53;;;;;;;5.50;2.28;;;;;;;11.43;89.65;99063.44;2600557;28;20555;-86
2023/05/31 05:58:09;;;;;;;3.65;2.10;;;;;;;11.66;87.26;99060.28;2604456;28;20056;-86
2023/05/31 05:59:25;;;;;;;3.17;1.88;;;;;;;11.86;86.67;99058.97;2602935;28;20619;-86
2023/05/31 06:00:42;;;;;;;6.70;2.45;;;;;;;11.65;88.46;99061.19;2603531;28;20163;-85
2023/05/31 06:01:58;;;;;;;5.68;2.63;;;;;;;11.86;82.73;99066.84;2604409;28;20045;-86
2023/05/31 06:03:17;;;;;;;6.53;2.15;;;;;;;12.06;79.40;99057.69;2606524;28;20049;-86
2023/05/31 06:04:33;;;;;;;8.75;2.30;;;;;;;12.21;77.01;99067.78;2604933;28;20515;-86